createdAt,value
2022-08-09T00:00:53.637Z,17.79
2022-08-09T00:01:55.008Z,17.81
2022-08-09T00:02:52.593Z,17.82
2022-08-09T00:04:05.455Z,17.84
2022-08-09T00:05:03.390Z,17.88
2022-08-09T00:06:17.780Z,17.87
2022-08-09T00:06:53.533Z,17.87
2022-08-09T00:07:54.409Z,17.85
2022-08-09T00:08:57.090Z,17.84
2022-08-09T00:09:53.503Z,17.81
2022-08-09T00:10:52.491Z,17.79
2022-08-09T00:12:03.756Z,17.76
2022-08-09T00:12:53.559Z,17.73
2022-08-09T00:13:52.441Z,17.70
2022-08-09T00:14:55.881Z,17.67
2022-08-09T00:15:59.015Z,17.69
2022-08-09T00:16:53.427Z,17.64
2022-08-09T00:18:07.675Z,17.62
2022-08-09T00:18:53.395Z,17.59
2022-08-09T00:19:52.439Z,17.57
2022-08-09T00:20:52.391Z,17.62
2022-08-09T00:21:55.822Z,17.59
2022-08-09T00:22:52.356Z,17.62
2022-08-09T00:23:55.113Z,17.59
2022-08-09T00:24:53.316Z,17.59
2022-08-09T00:25:52.316Z,17.55
2022-08-09T00:26:52.432Z,17.55
2022-08-09T00:27:52.289Z,17.54
2022-08-09T00:28:53.272Z,17.53
2022-08-09T00:30:24.247Z,17.51
2022-08-09T00:30:53.284Z,17.48
2022-08-09T00:31:59.920Z,17.47
2022-08-09T00:32:53.244Z,17.43
2022-08-09T00:33:52.252Z,17.40
2022-08-09T00:34:52.980Z,17.38
2022-08-09T00:35:52.216Z,17.38
2022-08-09T00:36:52.250Z,17.40
2022-08-09T00:37:52.191Z,17.38
2022-08-09T00:38:52.181Z,17.40
2022-08-09T00:40:13.493Z,17.40
2022-08-09T00:40:53.518Z,17.41
2022-08-09T00:44:12.975Z,17.41
2022-08-09T00:44:14.340Z,17.41
2022-08-09T00:44:17.021Z,17.38
2022-08-09T00:44:53.708Z,17.38
2022-08-09T00:45:53.873Z,17.33
2022-08-09T00:46:55.864Z,17.32
2022-08-09T00:47:53.078Z,17.28
2022-08-09T00:48:54.483Z,17.26
2022-08-09T00:49:55.245Z,17.23
2022-08-09T00:50:52.409Z,17.25
2022-08-09T00:51:55.906Z,17.23
2022-08-09T00:52:52.014Z,17.25
2022-08-09T00:53:51.997Z,17.25
2022-08-09T00:54:51.987Z,17.26
2022-08-09T00:56:05.280Z,17.26
2022-08-09T00:56:52.958Z,17.25
2022-08-09T00:57:51.966Z,17.25
2022-08-09T00:58:53.883Z,17.25
2022-08-09T00:59:52.456Z,17.25
2022-08-09T01:00:51.970Z,17.26
2022-08-09T01:01:51.940Z,17.28
2022-08-09T01:02:51.902Z,17.29
2022-08-09T01:03:51.870Z,17.26
2022-08-09T01:04:51.872Z,17.26
2022-08-09T01:05:54.040Z,17.26
2022-08-09T01:06:54.843Z,17.26
2022-08-09T01:08:00.017Z,17.25
2022-08-09T01:08:52.862Z,17.25
2022-08-09T01:09:51.812Z,17.22
2022-08-09T01:10:51.914Z,17.22
2022-08-09T01:11:55.385Z,17.22
2022-08-09T01:12:52.687Z,17.17
2022-08-09T01:13:59.234Z,17.13
2022-08-09T01:14:52.896Z,17.11
2022-08-09T01:15:52.744Z,17.07
2022-08-09T01:16:51.725Z,17.06
2022-08-09T01:17:52.001Z,17.00
2022-08-09T01:19:01.630Z,16.96
2022-08-09T01:20:02.849Z,16.96
2022-08-09T01:20:52.711Z,16.90
2022-08-09T01:21:53.686Z,16.90
2022-08-09T01:22:54.678Z,16.86
2022-08-09T01:24:01.055Z,16.81
2022-08-09T01:24:52.648Z,16.78
2022-08-09T01:25:51.626Z,16.77
2022-08-09T01:26:53.018Z,16.73
2022-08-09T01:27:51.599Z,16.74
2022-08-09T01:28:51.600Z,16.70
2022-08-09T01:29:56.130Z,16.68
2022-08-09T01:30:52.968Z,16.67
2022-08-09T01:32:31.215Z,16.63
2022-08-09T01:32:52.541Z,16.60
2022-08-09T01:33:51.530Z,16.58
2022-08-09T01:34:52.493Z,16.58
2022-08-09T01:35:51.807Z,16.55
2022-08-09T01:36:51.501Z,16.53
2022-08-09T01:38:08.329Z,16.53
2022-08-09T01:38:52.574Z,16.49
2022-08-09T01:39:52.514Z,16.45
2022-08-09T01:40:53.027Z,16.45
2022-08-09T01:41:53.360Z,16.41
2022-08-09T01:42:52.446Z,16.40
2022-08-09T01:43:52.584Z,16.40
2022-08-09T01:44:51.414Z,16.40
2022-08-09T01:45:51.416Z,16.35
2022-08-09T01:46:51.390Z,16.33
2022-08-09T01:47:51.380Z,16.33
2022-08-09T01:48:51.362Z,16.30
2022-08-09T01:49:54.706Z,16.27
2022-08-09T01:50:54.916Z,16.25
2022-08-09T01:51:53.914Z,16.22
2022-08-09T01:52:51.316Z,16.18
2022-08-09T01:53:51.299Z,16.16
2022-08-09T01:54:51.329Z,16.15
2022-08-09T01:55:51.295Z,16.15
2022-08-09T01:56:51.630Z,16.12
2022-08-09T01:57:53.078Z,16.11
2022-08-09T01:58:51.250Z,16.11
2022-08-09T01:59:52.331Z,16.09
2022-08-09T02:00:51.292Z,16.07
2022-08-09T02:01:59.961Z,16.06
2022-08-09T02:02:52.201Z,16.04
2022-08-09T02:03:51.191Z,16.04
2022-08-09T02:04:51.199Z,16.01
2022-08-09T02:06:03.989Z,16.00
2022-08-09T02:06:54.477Z,15.97
2022-08-09T02:08:39.996Z,15.94
2022-08-09T02:08:57.814Z,15.92
2022-08-09T02:09:59.327Z,15.89
2022-08-09T02:10:52.142Z,15.86
2022-08-09T02:11:51.149Z,15.85
2022-08-09T02:12:51.088Z,15.85
2022-08-09T02:14:06.398Z,15.84
2022-08-09T02:14:52.102Z,15.81
2022-08-09T02:15:51.061Z,15.79
2022-08-09T02:16:53.178Z,15.78
2022-08-09T02:18:00.908Z,15.76
2022-08-09T02:18:52.030Z,15.76
2022-08-09T02:19:51.005Z,15.74
2022-08-09T02:20:50.997Z,15.70
2022-08-09T02:21:55.532Z,15.68
2022-08-09T02:22:50.978Z,15.66
2022-08-09T02:23:52.466Z,15.66
2022-08-09T02:24:51.761Z,15.64
2022-08-09T02:25:55.616Z,15.61
2022-08-09T02:26:51.933Z,15.61
2022-08-09T02:28:00.644Z,15.61
2022-08-09T02:28:51.924Z,15.61
2022-08-09T02:29:50.895Z,15.60
2022-08-09T02:30:51.767Z,15.59
2022-08-09T02:31:50.869Z,15.60
2022-08-09T02:32:51.036Z,15.59
2022-08-09T02:34:07.467Z,15.57
2022-08-09T02:34:55.839Z,15.57
2022-08-09T02:36:03.054Z,15.56
2022-08-09T02:36:52.670Z,15.52
2022-08-09T02:37:50.854Z,15.51
2022-08-09T02:38:50.798Z,15.51
2022-08-09T02:39:55.378Z,15.49
2022-08-09T02:40:51.858Z,15.48
2022-08-09T02:41:50.839Z,15.48
2022-08-09T02:42:51.231Z,15.46
2022-08-09T02:43:54.512Z,15.46
2022-08-09T02:44:50.731Z,15.46
2022-08-09T02:45:50.717Z,15.45
2022-08-09T02:46:52.228Z,15.42
2022-08-09T02:47:59.124Z,15.43
2022-08-09T02:48:51.682Z,15.38
2022-08-09T02:49:55.539Z,15.31
2022-08-09T02:50:56.168Z,15.27
2022-08-09T02:51:50.643Z,15.26
2022-08-09T02:52:55.268Z,15.20
2022-08-09T02:53:59.665Z,15.19
2022-08-09T02:54:54.886Z,15.15
2022-08-09T02:55:58.362Z,15.13
2022-08-09T02:56:56.943Z,15.15
2022-08-09T02:58:00.454Z,15.12
2022-08-09T02:58:51.561Z,15.12
2022-08-09T03:00:11.366Z,15.08
2022-08-09T03:00:58.627Z,15.09
2022-08-09T03:02:06.352Z,15.08
2022-08-09T03:03:00.021Z,15.06
2022-08-09T03:04:16.652Z,15.02
2022-08-09T03:04:51.493Z,15.03
2022-08-09T03:05:50.489Z,15.01
2022-08-09T03:06:51.565Z,14.98
2022-08-09T03:07:55.323Z,14.98
2022-08-09T03:08:51.467Z,14.95
2022-08-09T03:09:56.583Z,14.93
2022-08-09T03:10:51.441Z,14.91
2022-08-09T03:12:09.966Z,14.87
2022-08-09T03:12:52.042Z,14.84
2022-08-09T03:13:59.631Z,14.83
2022-08-09T03:14:51.403Z,14.80
2022-08-09T03:16:06.254Z,14.75
2022-08-09T03:16:51.375Z,14.74
2022-08-09T03:17:53.836Z,14.72
2022-08-09T03:18:53.056Z,14.72
2022-08-09T03:19:52.471Z,14.69
2022-08-09T03:20:51.319Z,14.67
2022-08-09T03:21:50.923Z,14.67
2022-08-09T03:22:54.577Z,14.65
2022-08-09T03:24:04.810Z,14.62
2022-08-09T03:25:06.303Z,14.62
2022-08-09T03:25:59.005Z,14.60
2022-08-09T03:26:51.239Z,14.60
2022-08-09T03:27:50.247Z,14.56
2022-08-09T03:28:54.916Z,14.57
2022-08-09T03:30:00.704Z,14.57
2022-08-09T03:30:51.207Z,14.57
2022-08-09T03:31:59.938Z,14.57
2022-08-09T03:32:51.173Z,14.60
2022-08-09T03:33:54.139Z,14.57
2022-08-09T03:34:54.220Z,14.54
2022-08-09T03:36:15.924Z,14.53
2022-08-09T03:36:59.816Z,14.49
2022-08-09T03:37:55.673Z,14.49
2022-08-09T03:38:52.073Z,14.47
2022-08-09T03:39:55.583Z,14.47
2022-08-09T03:40:51.103Z,14.47
2022-08-09T03:41:50.067Z,14.47
2022-08-09T03:42:51.078Z,14.47
2022-08-09T03:43:51.916Z,14.47
2022-08-09T03:44:51.057Z,14.49
2022-08-09T03:46:04.855Z,14.50
2022-08-09T03:46:51.039Z,14.52
2022-08-09T03:47:50.009Z,14.54
2022-08-09T03:48:51.824Z,14.54
2022-08-09T03:49:58.224Z,14.54
2022-08-09T03:50:50.981Z,14.53
2022-08-09T03:51:55.737Z,14.54
2022-08-09T03:52:50.943Z,14.53
2022-08-09T03:53:49.949Z,14.53
2022-08-09T03:54:50.972Z,14.53
2022-08-09T03:55:49.930Z,14.53
2022-08-09T03:56:49.900Z,14.53
2022-08-09T03:58:03.144Z,14.56
2022-08-09T03:58:50.882Z,14.53
2022-08-09T03:59:55.036Z,14.54
2022-08-09T04:00:51.001Z,14.54
2022-08-09T04:01:49.874Z,14.47
2022-08-09T04:02:52.766Z,14.44
2022-08-09T04:04:01.267Z,14.46
2022-08-09T04:04:50.962Z,14.42
2022-08-09T04:05:49.820Z,14.42
2022-08-09T04:06:50.015Z,14.43
2022-08-09T04:07:53.694Z,14.43
2022-08-09T04:08:50.783Z,14.44
2022-08-09T04:09:52.930Z,14.44
2022-08-09T04:10:49.861Z,14.46
2022-08-09T04:11:49.737Z,14.47
2022-08-09T04:12:50.011Z,14.50
2022-08-09T04:14:53.537Z,14.53
2022-08-09T04:15:00.938Z,14.54
2022-08-09T04:16:20.152Z,14.56
2022-08-09T04:16:50.701Z,14.56
2022-08-09T04:17:49.678Z,14.57
2022-08-09T04:18:51.316Z,14.60
2022-08-09T04:19:51.572Z,14.62
2022-08-09T04:20:51.493Z,14.65
2022-08-09T04:21:49.620Z,14.65
2022-08-09T04:22:50.455Z,14.67
2022-08-09T04:23:53.774Z,14.69
2022-08-09T04:24:49.573Z,14.80
2022-08-09T04:25:51.707Z,15.12
2022-08-09T04:26:49.567Z,15.68
2022-08-09T04:27:49.541Z,16.25
2022-08-09T04:28:49.557Z,16.73
2022-08-09T04:29:50.457Z,17.14
2022-08-09T04:30:49.602Z,17.46
2022-08-09T04:31:49.512Z,17.67
2022-08-09T04:32:49.483Z,17.67
2022-08-09T04:33:52.768Z,17.32
2022-08-09T04:34:54.469Z,16.85
2022-08-09T04:35:50.552Z,16.42
2022-08-09T04:36:50.382Z,16.09
2022-08-09T04:37:49.435Z,15.89
2022-08-09T04:38:49.419Z,15.76
2022-08-09T04:39:49.634Z,15.63
2022-08-09T04:40:54.245Z,15.57
2022-08-09T04:41:50.407Z,15.61
2022-08-09T04:42:49.393Z,15.88
2022-08-09T04:43:53.941Z,16.35
2022-08-09T04:44:50.348Z,16.98
2022-08-09T04:45:53.123Z,17.55
2022-08-09T04:47:00.062Z,18.03
2022-08-09T04:48:01.032Z,18.29
2022-08-09T04:48:57.628Z,18.39
2022-08-09T04:49:52.755Z,18.33
2022-08-09T04:50:50.321Z,18.12
2022-08-09T04:51:49.285Z,17.85
2022-08-09T04:52:49.251Z,17.53
2022-08-09T04:53:54.148Z,17.22
2022-08-09T04:54:50.238Z,16.88
2022-08-09T04:55:59.062Z,16.70
2022-08-09T04:56:50.253Z,16.48
2022-08-09T04:57:53.845Z,16.34
2022-08-09T04:58:50.827Z,16.23
2022-08-09T04:59:50.288Z,16.14
2022-08-09T05:00:49.175Z,16.03
2022-08-09T05:01:49.176Z,15.96
2022-08-09T05:02:52.963Z,15.89
2022-08-09T05:03:49.239Z,15.84
2022-08-09T05:04:55.185Z,15.79
2022-08-09T05:05:51.948Z,15.79
2022-08-09T05:06:50.488Z,15.79
2022-08-09T05:07:49.108Z,15.81
2022-08-09T05:08:49.092Z,15.85
2022-08-09T05:09:49.864Z,15.88
2022-08-09T05:10:49.060Z,15.89
2022-08-09T05:11:49.064Z,15.92
2022-08-09T05:12:49.156Z,15.94
2022-08-09T05:13:49.091Z,15.96
2022-08-09T05:14:49.010Z,15.99
2022-08-09T05:15:52.233Z,15.89
2022-08-09T05:16:58.847Z,15.82
2022-08-09T05:18:37.771Z,15.84
2022-08-09T05:18:58.293Z,15.86
2022-08-09T05:19:49.967Z,15.78
2022-08-09T05:20:49.957Z,15.79
2022-08-09T05:21:55.449Z,15.84
2022-08-09T05:23:54.941Z,15.86
2022-08-09T05:23:57.815Z,15.85
2022-08-09T05:24:49.900Z,15.85
2022-08-09T05:25:50.965Z,15.89
2022-08-09T05:26:48.906Z,15.94
2022-08-09T05:27:48.894Z,15.97
2022-08-09T05:28:48.880Z,15.96
2022-08-09T05:29:48.865Z,15.92
2022-08-09T05:30:48.904Z,15.89
2022-08-09T05:31:57.667Z,15.85
2022-08-09T05:32:50.976Z,15.85
2022-08-09T05:33:48.807Z,15.86
2022-08-09T05:34:48.805Z,15.82
2022-08-09T05:35:50.889Z,15.79
2022-08-09T05:36:48.783Z,15.79
2022-08-09T05:37:50.253Z,15.85
2022-08-09T05:38:48.767Z,15.88
2022-08-09T05:39:48.774Z,15.92
2022-08-09T05:40:50.594Z,15.93
2022-08-09T05:41:48.701Z,15.94
2022-08-09T05:42:48.690Z,15.97
2022-08-09T05:43:49.021Z,16.04
2022-08-09T05:44:51.020Z,16.14
2022-08-09T05:45:55.567Z,16.18
2022-08-09T05:46:49.669Z,16.25
2022-08-09T05:47:52.173Z,16.30
2022-08-09T05:48:48.789Z,16.31
2022-08-09T05:50:30.563Z,16.30
2022-08-09T05:50:50.967Z,16.34
2022-08-09T05:51:49.601Z,16.41
2022-08-09T05:52:53.924Z,16.45
2022-08-09T05:53:56.868Z,16.49
2022-08-09T05:54:49.563Z,16.49
2022-08-09T05:55:48.548Z,16.53
2022-08-09T05:56:55.270Z,16.58
2022-08-09T05:57:50.735Z,16.53
2022-08-09T05:58:49.506Z,16.55
2022-08-09T05:59:48.529Z,16.60
2022-08-09T06:00:48.497Z,16.67
2022-08-09T06:01:48.491Z,16.73
2022-08-09T06:02:48.556Z,16.78
2022-08-09T06:03:58.070Z,16.89
2022-08-09T06:04:49.451Z,16.90
2022-08-09T06:05:54.582Z,16.92
2022-08-09T06:06:50.077Z,16.92
2022-08-09T06:07:49.581Z,16.92
2022-08-09T06:08:52.540Z,16.93
2022-08-09T06:10:01.967Z,16.89
2022-08-09T06:10:49.762Z,16.90
2022-08-09T06:11:51.872Z,16.90
2022-08-09T06:12:50.503Z,16.99
2022-08-09T06:13:49.346Z,17.07
2022-08-09T06:14:48.347Z,17.15
2022-08-09T06:15:50.997Z,17.20
2022-08-09T06:16:52.160Z,17.29
2022-08-09T06:17:48.297Z,17.35
2022-08-09T06:18:48.412Z,17.43
2022-08-09T06:19:48.264Z,17.47
2022-08-09T06:20:49.863Z,17.44
2022-08-09T06:21:51.451Z,17.47
2022-08-09T06:22:49.255Z,17.50
2022-08-09T06:23:57.249Z,17.51
2022-08-09T06:24:49.217Z,17.57
2022-08-09T06:25:48.764Z,17.64
2022-08-09T06:26:49.142Z,17.73
2022-08-09T06:27:51.744Z,17.74
2022-08-09T06:28:48.169Z,17.79
2022-08-09T06:29:58.594Z,17.81
2022-08-09T06:30:49.149Z,17.85
2022-08-09T06:32:08.395Z,17.89
2022-08-09T06:32:59.876Z,17.95
2022-08-09T06:33:49.111Z,17.95
2022-08-09T06:34:52.981Z,17.92
2022-08-09T06:35:57.620Z,17.92
2022-08-09T06:36:49.081Z,17.94
2022-08-09T06:37:50.720Z,17.97
2022-08-09T06:38:50.430Z,17.97
2022-08-09T06:39:57.899Z,17.97
2022-08-09T06:40:54.984Z,17.97
2022-08-09T06:42:09.340Z,18.02
2022-08-09T06:42:50.983Z,18.07
2022-08-09T06:43:48.030Z,18.12
2022-08-09T06:44:51.862Z,18.18
2022-08-09T06:46:06.261Z,18.25
2022-08-09T06:46:54.923Z,18.31
2022-08-09T06:47:48.971Z,18.36
2022-08-09T06:48:48.969Z,18.40
2022-08-09T06:50:13.505Z,18.24
2022-08-09T06:50:49.871Z,18.18
2022-08-09T06:51:47.928Z,18.24
2022-08-09T06:52:48.853Z,18.28
2022-08-09T06:53:49.931Z,18.40
2022-08-09T06:54:47.928Z,18.47
2022-08-09T06:55:48.404Z,18.50
2022-08-09T06:56:47.886Z,18.59
2022-08-09T06:58:02.004Z,18.65
2022-08-09T07:00:50.100Z,18.68
2022-08-09T07:00:52.717Z,18.72
2022-08-09T07:00:58.416Z,18.73
2022-08-09T07:01:54.026Z,18.72
2022-08-09T07:02:48.858Z,18.74
2022-08-09T07:03:52.449Z,18.73
2022-08-09T07:04:48.782Z,18.79
2022-08-09T07:06:02.240Z,18.82
2022-08-09T07:06:53.092Z,18.87
2022-08-09T07:07:59.749Z,18.97
2022-08-09T07:08:49.756Z,19.02
2022-08-09T07:09:57.374Z,18.99
2022-08-09T07:10:48.695Z,18.99
2022-08-09T07:11:53.378Z,19.02
2022-08-09T07:12:57.230Z,19.05
2022-08-09T07:14:04.338Z,18.99
2022-08-09T07:14:50.695Z,18.98
2022-08-09T07:15:54.104Z,19.02
2022-08-09T07:16:55.419Z,19.08
2022-08-09T07:17:52.865Z,19.06
2022-08-09T07:18:50.032Z,19.10
2022-08-09T07:19:47.922Z,19.13
2022-08-09T07:20:47.858Z,19.20
2022-08-09T07:21:55.370Z,19.25
2022-08-09T07:22:53.425Z,19.31
2022-08-09T07:23:58.014Z,19.38
2022-08-09T07:24:49.661Z,19.43
2022-08-09T07:25:47.558Z,19.50
2022-08-09T07:26:50.920Z,19.54
2022-08-09T07:27:53.546Z,19.57
2022-08-09T07:29:08.935Z,19.58
2022-08-09T07:29:48.891Z,19.66
2022-08-09T07:30:47.485Z,19.57
2022-08-09T07:31:48.180Z,19.53
2022-08-09T07:32:47.456Z,19.47
2022-08-09T07:33:52.133Z,19.39
2022-08-09T07:34:48.424Z,19.39
2022-08-09T07:35:54.376Z,19.43
2022-08-09T07:36:48.415Z,19.50
2022-08-09T07:37:48.112Z,19.60
2022-08-09T07:38:56.604Z,19.70
2022-08-09T07:39:48.412Z,19.79
2022-08-09T07:41:00.908Z,19.87
2022-08-09T07:41:48.348Z,19.93
2022-08-09T07:42:47.325Z,19.93
2022-08-09T07:43:49.927Z,19.94
2022-08-09T07:44:52.062Z,19.97
2022-08-09T07:45:48.338Z,20.02
2022-08-09T07:46:47.279Z,20.08
2022-08-09T07:48:00.771Z,20.08
2022-08-09T07:48:52.732Z,20.06
2022-08-09T07:50:05.347Z,20.13
2022-08-09T07:50:52.739Z,20.21
2022-08-09T07:52:04.805Z,20.21
2022-08-09T07:52:48.206Z,20.27
2022-08-09T07:54:07.711Z,20.30
2022-08-09T07:54:51.397Z,20.31
2022-08-09T07:56:02.870Z,20.35
2022-08-09T07:56:49.178Z,20.41
2022-08-09T07:57:47.654Z,20.42
2022-08-09T07:58:47.380Z,20.46
2022-08-09T08:00:02.756Z,20.50
2022-08-09T08:00:58.640Z,20.58
2022-08-09T08:01:53.284Z,20.61
2022-08-09T08:02:48.135Z,20.68
2022-08-09T08:03:47.167Z,20.71
2022-08-09T08:04:48.808Z,20.77
2022-08-09T08:05:57.267Z,20.81
2022-08-09T08:06:56.058Z,20.87
2022-08-09T08:08:45.159Z,20.93
2022-08-09T08:09:03.427Z,20.98
2022-08-09T08:09:53.329Z,20.96
2022-08-09T08:11:03.165Z,20.95
2022-08-09T08:12:11.112Z,20.95
2022-08-09T08:12:48.059Z,20.96
2022-08-09T08:13:56.635Z,20.96
2022-08-09T08:14:48.002Z,21.04
2022-08-09T08:15:47.030Z,21.05
2022-08-09T08:17:00.937Z,21.06
2022-08-09T08:17:54.781Z,21.11
2022-08-09T08:18:47.924Z,21.13
2022-08-09T08:19:47.303Z,21.17
2022-08-09T08:20:48.166Z,21.23
2022-08-09T08:21:52.780Z,21.30
2022-08-09T08:22:48.436Z,21.35
2022-08-09T08:23:55.616Z,21.42
2022-08-09T08:24:49.223Z,21.51
2022-08-09T08:25:49.829Z,21.56
2022-08-09T08:26:55.570Z,21.61
2022-08-09T08:27:49.854Z,21.61
2022-08-09T08:28:46.979Z,21.67
2022-08-09T08:29:50.119Z,21.67
2022-08-09T08:30:47.781Z,21.76
2022-08-09T08:32:03.497Z,21.82
2022-08-09T08:32:52.719Z,21.79
2022-08-09T08:33:53.409Z,21.76
2022-08-09T08:34:48.538Z,21.82
2022-08-09T08:35:59.482Z,21.90
2022-08-09T08:36:47.718Z,21.90
2022-08-09T08:38:02.109Z,21.92
2022-08-09T08:38:47.702Z,21.83
2022-08-09T08:39:46.778Z,21.82
2022-08-09T08:40:49.631Z,21.88
2022-08-09T08:41:51.948Z,21.92
2022-08-09T08:42:47.660Z,21.95
2022-08-09T08:43:46.632Z,21.98
2022-08-09T08:44:46.648Z,22.06
2022-08-09T08:45:51.337Z,22.12
2022-08-09T08:47:02.111Z,22.14
2022-08-09T08:47:47.583Z,22.19
2022-08-09T08:48:51.999Z,22.29
2022-08-09T08:49:49.335Z,22.39
2022-08-09T08:50:49.355Z,22.47
2022-08-09T08:52:01.650Z,22.47
2022-08-09T08:52:59.210Z,22.52
2022-08-09T08:54:03.881Z,22.56
2022-08-09T08:54:47.538Z,22.62
2022-08-09T08:55:46.503Z,22.60
2022-08-09T08:56:46.487Z,22.68
2022-08-09T08:57:56.758Z,22.71
2022-08-09T08:58:47.473Z,22.75
2022-08-09T08:59:47.199Z,22.78
2022-08-09T09:00:46.451Z,22.84
2022-08-09T09:01:57.160Z,22.89
2022-08-09T09:02:52.245Z,22.96
2022-08-09T09:03:46.515Z,23.01
2022-08-09T09:04:52.691Z,23.02
2022-08-09T09:05:59.838Z,23.09
2022-08-09T09:06:47.383Z,23.09
2022-08-09T09:07:46.363Z,23.14
2022-08-09T09:08:52.779Z,23.22
2022-08-09T09:10:01.980Z,23.27
2022-08-09T09:10:47.358Z,23.32
2022-08-09T09:11:46.486Z,23.43
2022-08-09T09:12:46.332Z,23.49
2022-08-09T09:13:55.214Z,23.55
2022-08-09T09:14:47.412Z,23.61
2022-08-09T09:15:49.330Z,23.65
2022-08-09T09:16:46.292Z,23.70
2022-08-09T09:17:48.571Z,23.75
2022-08-09T09:18:54.869Z,23.79
2022-08-09T09:19:47.559Z,23.79
2022-08-09T09:20:46.219Z,23.86
2022-08-09T09:21:46.913Z,23.87
2022-08-09T09:22:46.218Z,23.89
2022-08-09T09:23:49.884Z,23.92
2022-08-09T09:24:47.259Z,23.97
2022-08-09T09:26:03.164Z,23.97
2022-08-09T09:26:47.170Z,23.98
2022-08-09T09:28:05.188Z,24.08
2022-08-09T09:29:04.440Z,24.14
2022-08-09T09:30:47.413Z,24.22
2022-08-09T09:32:03.668Z,24.20
2022-08-09T09:32:47.097Z,24.19
2022-08-09T09:33:46.124Z,24.16
2022-08-09T09:34:47.092Z,24.22
2022-08-09T09:35:48.028Z,24.17
2022-08-09T09:36:53.862Z,24.17
2022-08-09T09:37:47.025Z,24.17
2022-08-09T09:38:46.966Z,24.26
2022-08-09T09:39:56.767Z,24.29
2022-08-09T09:40:47.007Z,24.37
2022-08-09T09:41:49.503Z,24.41
2022-08-09T09:42:46.285Z,24.49
2022-08-09T09:44:12.793Z,24.54
2022-08-09T09:44:47.052Z,24.57
2022-08-09T09:46:52.224Z,24.63
2022-08-09T09:47:56.660Z,24.67
2022-08-09T09:48:46.906Z,24.69
2022-08-09T09:50:13.835Z,24.73
2022-08-09T09:50:50.750Z,24.68
2022-08-09T09:51:47.841Z,24.64
2022-08-09T09:52:53.940Z,24.69
2022-08-09T09:54:01.690Z,24.77
2022-08-09T09:54:48.701Z,24.80
2022-08-09T09:55:46.836Z,24.88
2022-08-09T09:56:53.187Z,24.91
2022-08-09T09:58:02.195Z,24.90
2022-08-09T09:58:46.794Z,24.91
2022-08-09T09:59:45.798Z,24.94
2022-08-09T10:00:54.321Z,25.01
2022-08-09T10:01:47.326Z,25.05
2022-08-09T10:02:45.764Z,25.07
2022-08-09T10:03:56.128Z,25.10
2022-08-09T10:04:46.742Z,25.12
2022-08-09T10:06:03.950Z,25.17
2022-08-09T10:06:47.060Z,25.20
2022-08-09T10:08:10.724Z,25.22
2022-08-09T10:08:55.027Z,25.24
2022-08-09T10:09:48.518Z,25.27
2022-08-09T10:10:45.688Z,25.27
2022-08-09T10:11:52.745Z,25.25
2022-08-09T10:12:51.825Z,25.28
2022-08-09T10:13:47.589Z,25.37
2022-08-09T10:14:48.792Z,25.43
2022-08-09T10:16:09.674Z,25.44
2022-08-09T10:16:56.644Z,25.46
2022-08-09T10:17:55.656Z,25.43
2022-08-09T10:18:51.299Z,25.46
2022-08-09T10:19:46.546Z,25.44
2022-08-09T10:20:45.701Z,25.46
2022-08-09T10:21:45.547Z,25.44
2022-08-09T10:22:45.779Z,25.44
2022-08-09T10:23:45.519Z,25.42
2022-08-09T10:24:45.488Z,25.39
2022-08-09T10:26:07.111Z,25.35
2022-08-09T10:26:46.779Z,25.31
2022-08-09T10:27:57.638Z,25.34
2022-08-09T10:28:48.830Z,25.39
2022-08-09T10:30:28.364Z,25.39
2022-08-09T10:32:46.438Z,25.47
2022-08-09T10:34:08.752Z,25.49
2022-08-09T10:34:46.406Z,25.53
2022-08-09T10:35:45.376Z,25.53
2022-08-09T10:36:45.492Z,25.57
2022-08-09T10:37:45.367Z,25.59
2022-08-09T10:38:56.281Z,25.61
2022-08-09T10:39:49.445Z,25.62
2022-08-09T10:40:45.384Z,25.67
2022-08-09T10:41:47.758Z,25.68
2022-08-09T10:42:45.935Z,25.72
2022-08-09T10:43:58.503Z,25.68
2022-08-09T10:44:46.285Z,25.69
2022-08-09T10:45:58.570Z,25.75
2022-08-09T10:46:54.981Z,25.80
2022-08-09T10:48:17.296Z,25.80
2022-08-09T10:48:46.218Z,25.82
2022-08-09T10:49:51.299Z,25.82
2022-08-09T10:50:46.211Z,25.77
2022-08-09T10:51:45.188Z,25.82
2022-08-09T10:52:46.179Z,25.79
2022-08-09T10:53:46.952Z,25.80
2022-08-09T10:54:46.205Z,25.87
2022-08-09T10:55:55.112Z,25.89
2022-08-09T10:56:46.157Z,25.86
2022-08-09T10:57:45.142Z,25.83
2022-08-09T10:58:45.119Z,25.86
2022-08-09T10:59:57.754Z,25.87
2022-08-09T11:01:10.890Z,25.84
2022-08-09T11:03:13.786Z,25.77
2022-08-09T11:03:13.858Z,25.74
2022-08-09T11:03:53.081Z,25.83
2022-08-09T11:04:56.186Z,25.86
2022-08-09T11:06:00.606Z,25.93
2022-08-09T11:06:46.035Z,25.97
2022-08-09T11:07:55.792Z,26.01
2022-08-09T11:08:47.845Z,26.11
2022-08-09T11:09:47.414Z,26.17
2022-08-09T11:10:47.279Z,26.25
2022-08-09T11:11:51.931Z,26.29
2022-08-09T11:12:46.012Z,26.36
2022-08-09T11:13:54.250Z,26.36
2022-08-09T11:14:45.940Z,26.36
2022-08-09T11:15:50.963Z,26.40
2022-08-09T11:16:47.163Z,26.37
2022-08-09T11:17:44.890Z,26.37
2022-08-09T11:18:45.191Z,26.40
2022-08-09T11:20:11.262Z,26.35
2022-08-09T11:20:45.865Z,26.36
2022-08-09T11:21:44.842Z,26.37
2022-08-09T11:22:45.858Z,26.40
2022-08-09T11:23:48.847Z,26.42
2022-08-09T11:24:44.822Z,26.43
2022-08-09T11:25:47.709Z,26.44
2022-08-09T11:26:47.281Z,26.46
2022-08-09T11:28:02.645Z,26.54
2022-08-09T11:28:56.208Z,26.59
2022-08-09T11:30:06.157Z,26.64
2022-08-09T11:30:47.953Z,26.62
2022-08-09T11:31:49.189Z,26.62
2022-08-09T11:32:45.759Z,26.64
2022-08-09T11:33:44.719Z,26.58
2022-08-09T11:34:44.708Z,26.58
2022-08-09T11:35:50.189Z,26.65
2022-08-09T11:36:45.728Z,26.68
2022-08-09T11:37:44.682Z,26.74
2022-08-09T11:38:45.822Z,26.80
2022-08-09T11:39:44.856Z,26.81
2022-08-09T11:40:44.665Z,26.81
2022-08-09T11:41:45.211Z,26.84
2022-08-09T11:42:44.825Z,26.89
2022-08-09T11:43:44.625Z,26.98
2022-08-09T11:44:44.613Z,27.04
2022-08-09T11:45:44.585Z,27.14
2022-08-09T11:46:44.613Z,27.17
2022-08-09T11:47:44.566Z,27.21
2022-08-09T11:48:44.556Z,27.20
2022-08-09T11:50:03.099Z,27.23
2022-08-09T11:50:56.199Z,27.17
2022-08-09T11:53:02.151Z,26.99
2022-08-09T11:53:03.586Z,26.77
2022-08-09T11:53:59.966Z,26.58
2022-08-09T11:54:45.504Z,26.52
2022-08-09T11:55:53.724Z,26.54
2022-08-09T11:56:48.124Z,26.55
2022-08-09T11:57:47.621Z,26.65
2022-08-09T11:58:48.156Z,26.68
2022-08-09T11:59:45.437Z,26.79
2022-08-09T12:00:45.531Z,26.69
2022-08-09T12:02:16.057Z,26.57
2022-08-09T12:02:45.825Z,26.54
2022-08-09T12:03:55.430Z,26.37
2022-08-09T12:04:45.531Z,26.37
2022-08-09T12:05:47.178Z,26.43
2022-08-09T12:06:53.095Z,26.44
2022-08-09T12:07:45.337Z,26.40
2022-08-09T12:08:44.329Z,26.31
2022-08-09T12:09:50.906Z,26.24
2022-08-09T12:10:45.311Z,26.15
2022-08-09T12:12:02.436Z,26.18
2022-08-09T12:12:45.279Z,26.32
2022-08-09T12:14:07.824Z,26.47
2022-08-09T12:15:07.992Z,26.64
2022-08-09T12:15:50.388Z,26.72
2022-08-09T12:16:45.252Z,26.77
2022-08-09T12:17:48.909Z,26.87
2022-08-09T12:18:45.216Z,26.94
2022-08-09T12:19:45.210Z,27.02
2022-08-09T12:20:46.472Z,27.16
2022-08-09T12:21:48.578Z,27.21
2022-08-09T12:22:45.183Z,27.23
2022-08-09T12:24:02.439Z,27.16
2022-08-09T12:24:45.154Z,27.13
2022-08-09T12:25:49.460Z,27.24
2022-08-09T12:28:58.263Z,27.33
2022-08-09T12:29:12.227Z,27.38
2022-08-09T12:29:13.166Z,27.33
2022-08-09T12:29:54.103Z,27.47
2022-08-09T12:30:45.095Z,27.53
2022-08-09T12:32:02.024Z,27.57
2022-08-09T12:32:45.063Z,27.64
2022-08-09T12:33:58.465Z,27.77
2022-08-09T12:34:45.043Z,27.92
2022-08-09T12:35:44.025Z,28.03
2022-08-09T12:36:44.018Z,27.89
2022-08-09T12:37:51.727Z,27.80
2022-08-09T12:38:45.020Z,27.70
2022-08-09T12:39:44.028Z,27.70
2022-08-09T12:40:44.005Z,27.85
2022-08-09T12:41:43.966Z,27.89
2022-08-09T12:42:43.970Z,27.94
2022-08-09T12:44:07.032Z,27.96
2022-08-09T12:44:46.614Z,27.85
2022-08-09T12:45:59.396Z,27.57
2022-08-09T12:46:49.180Z,27.35
2022-08-09T12:47:50.310Z,27.19
2022-08-09T12:48:44.908Z,27.17
2022-08-09T12:49:52.772Z,27.14
2022-08-09T12:50:44.880Z,27.14
2022-08-09T12:52:01.709Z,27.06
2022-08-09T12:53:08.218Z,27.13
2022-08-09T12:53:45.815Z,27.16
2022-08-09T12:54:44.918Z,27.19
2022-08-09T12:56:14.859Z,27.20
2022-08-09T12:56:48.410Z,27.29